sensor_id;sensor_type;location;lat;lon;timestamp;P1;durP1;ratioP1;P2;durP2;ratioP2
43793;SDS011;29414;44.798;20.366;2023-03-23T00:02:55;38.50;;;25.77;;
43793;SDS011;29414;44.798;20.366;2023-03-23T00:06:56;29.97;;;23.93;;
43793;SDS011;29414;44.798;20.366;2023-03-23T00:10:56;39.75;;;28.15;;
43793;SDS011;29414;44.798;20.366;2023-03-23T00:14:56;35.33;;;26.33;;
43793;SDS011;29414;44.798;20.366;2023-03-23T00:19:01;39.97;;;27.33;;
43793;SDS011;29414;44.798;20.366;2023-03-23T00:23:01;32.80;;;25.60;;
43793;SDS011;29414;44.798;20.366;2023-03-23T00:27:02;31.77;;;25.17;;
43793;SDS011;29414;44.798;20.366;2023-03-23T00:31:04;30.40;;;25.43;;
43793;SDS011;29414;44.798;20.366;2023-03-23T00:35:06;33.33;;;25.27;;
43793;SDS011;29414;44.798;20.366;2023-03-23T00:39:06;60.37;;;25.83;;
43793;SDS011;29414;44.798;20.366;2023-03-23T00:43:07;39.92;;;27.58;;
43793;SDS011;29414;44.798;20.366;2023-03-23T00:47:08;31.20;;;25.57;;
43793;SDS011;29414;44.798;20.366;2023-03-23T00:51:10;35.07;;;27.00;;
43793;SDS011;29414;44.798;20.366;2023-03-23T00:55:11;30.50;;;24.60;;
43793;SDS011;29414;44.798;20.366;2023-03-23T00:59:11;32.18;;;26.44;;
43793;SDS011;29414;44.798;20.366;2023-03-23T01:03:12;35.50;;;26.70;;
43793;SDS011;29414;44.798;20.366;2023-03-23T01:07:19;31.23;;;24.75;;
43793;SDS011;29414;44.798;20.366;2023-03-23T01:11:19;36.90;;;25.07;;
43793;SDS011;29414;44.798;20.366;2023-03-23T01:15:20;32.27;;;25.67;;
43793;SDS011;29414;44.798;20.366;2023-03-23T01:19:20;31.30;;;24.83;;
43793;SDS011;29414;44.798;20.366;2023-03-23T01:23:20;33.88;;;24.92;;
43793;SDS011;29414;44.798;20.366;2023-03-23T01:27:21;27.02;;;22.85;;
43793;SDS011;29414;44.798;20.366;2023-03-23T01:31:22;37.83;;;28.05;;
43793;SDS011;29414;44.798;20.366;2023-03-23T01:35:22;52.67;;;32.37;;
43793;SDS011;29414;44.798;20.366;2023-03-23T01:39:23;28.73;;;23.10;;
43793;SDS011;29414;44.798;20.366;2023-03-23T01:43:23;34.15;;;25.02;;
43793;SDS011;29414;44.798;20.366;2023-03-23T01:47:23;33.87;;;27.20;;
43793;SDS011;29414;44.798;20.366;2023-03-23T01:51:26;33.93;;;26.83;;
43793;SDS011;29414;44.798;20.366;2023-03-23T01:55:27;36.73;;;28.47;;
43793;SDS011;29414;44.798;20.366;2023-03-23T01:59:28;35.60;;;28.10;;
43793;SDS011;29414;44.798;20.366;2023-03-23T02:03:29;34.43;;;27.53;;
43793;SDS011;29414;44.798;20.366;2023-03-23T02:07:30;37.80;;;27.63;;
43793;SDS011;29414;44.798;20.366;2023-03-23T02:11:31;31.50;;;26.77;;
43793;SDS011;29414;44.798;20.366;2023-03-23T02:15:51;37.47;;;29.47;;
43793;SDS011;29414;44.798;20.366;2023-03-23T02:24:15;39.33;;;29.40;;
43793;SDS011;29414;44.798;20.366;2023-03-23T02:37:03;36.47;;;27.93;;
43793;SDS011;29414;44.798;20.366;2023-03-23T02:41:03;34.80;;;26.53;;
43793;SDS011;29414;44.798;20.366;2023-03-23T02:45:03;38.87;;;28.57;;
43793;SDS011;29414;44.798;20.366;2023-03-23T02:49:05;33.53;;;27.90;;
43793;SDS011;29414;44.798;20.366;2023-03-23T02:53:07;31.20;;;26.67;;
43793;SDS011;29414;44.798;20.366;2023-03-23T02:57:08;41.07;;;28.77;;
43793;SDS011;29414;44.798;20.366;2023-03-23T03:05:28;41.67;;;27.60;;
43793;SDS011;29414;44.798;20.366;2023-03-23T03:10:32;38.83;;;29.50;;
43793;SDS011;29414;44.798;20.366;2023-03-23T03:18:15;38.67;;;27.33;;
43793;SDS011;29414;44.798;20.366;2023-03-23T03:22:17;35.77;;;27.67;;
43793;SDS011;29414;44.798;20.366;2023-03-23T03:26:20;35.77;;;27.70;;
43793;SDS011;29414;44.798;20.366;2023-03-23T03:30:22;39.57;;;28.23;;
43793;SDS011;29414;44.798;20.366;2023-03-23T03:34:25;36.43;;;28.20;;
43793;SDS011;29414;44.798;20.366;2023-03-23T03:38:25;34.33;;;25.87;;
43793;SDS011;29414;44.798;20.366;2023-03-23T03:42:26;49.53;;;27.77;;
43793;SDS011;29414;44.798;20.366;2023-03-23T03:46:26;51.43;;;27.40;;
43793;SDS011;29414;44.798;20.366;2023-03-23T03:50:29;36.07;;;26.23;;
43793;SDS011;29414;44.798;20.366;2023-03-23T03:54:30;35.83;;;25.90;;
43793;SDS011;29414;44.798;20.366;2023-03-23T03:58:30;37.10;;;27.40;;
43793;SDS011;29414;44.798;20.366;2023-03-23T04:02:32;34.97;;;27.13;;
43793;SDS011;29414;44.798;20.366;2023-03-23T04:06:33;49.07;;;27.47;;
43793;SDS011;29414;44.798;20.366;2023-03-23T04:10:37;36.37;;;26.90;;
43793;SDS011;29414;44.798;20.366;2023-03-23T04:14:38;42.72;;;27.00;;
43793;SDS011;29414;44.798;20.366;2023-03-23T04:18:38;32.40;;;26.17;;
43793;SDS011;29414;44.798;20.366;2023-03-23T04:22:38;34.53;;;25.73;;
43793;SDS011;29414;44.798;20.366;2023-03-23T04:26:38;36.63;;;26.17;;
43793;SDS011;29414;44.798;20.366;2023-03-23T04:30:40;37.17;;;26.87;;
43793;SDS011;29414;44.798;20.366;2023-03-23T04:34:43;39.83;;;27.83;;
43793;SDS011;29414;44.798;20.366;2023-03-23T04:38:44;36.03;;;27.47;;
43793;SDS011;29414;44.798;20.366;2023-03-23T04:42:45;39.53;;;25.40;;
43793;SDS011;29414;44.798;20.366;2023-03-23T04:46:45;34.03;;;27.07;;
43793;SDS011;29414;44.798;20.366;2023-03-23T04:50:49;41.20;;;30.47;;
43793;SDS011;29414;44.798;20.366;2023-03-23T04:54:51;42.03;;;28.50;;
43793;SDS011;29414;44.798;20.366;2023-03-23T04:58:51;37.27;;;28.30;;
43793;SDS011;29414;44.798;20.366;2023-03-23T05:02:52;38.70;;;26.53;;
43793;SDS011;29414;44.798;20.366;2023-03-23T05:06:52;37.93;;;25.63;;
43793;SDS011;29414;44.798;20.366;2023-03-23T05:10:53;42.53;;;27.83;;
43793;SDS011;29414;44.798;20.366;2023-03-23T05:14:53;40.63;;;30.03;;
43793;SDS011;29414;44.798;20.366;2023-03-23T05:18:54;41.83;;;28.27;;
43793;SDS011;29414;44.798;20.366;2023-03-23T05:22:57;47.00;;;32.13;;
43793;SDS011;29414;44.798;20.366;2023-03-23T05:26:57;44.20;;;33.50;;
43793;SDS011;29414;44.798;20.366;2023-03-23T05:30:58;57.90;;;33.50;;
43793;SDS011;29414;44.798;20.366;2023-03-23T05:34:59;56.35;;;33.63;;
43793;SDS011;29414;44.798;20.366;2023-03-23T05:38:59;162.03;;;37.27;;
43793;SDS011;29414;44.798;20.366;2023-03-23T05:43:00;54.23;;;33.40;;
43793;SDS011;29414;44.798;20.366;2023-03-23T05:47:00;137.67;;;36.47;;
43793;SDS011;29414;44.798;20.366;2023-03-23T05:51:00;83.55;;;32.45;;
43793;SDS011;29414;44.798;20.366;2023-03-23T05:55:01;94.70;;;29.56;;
43793;SDS011;29414;44.798;20.366;2023-03-23T05:59:01;153.38;;;34.74;;
43793;SDS011;29414;44.798;20.366;2023-03-23T06:03:02;203.20;;;40.03;;
43793;SDS011;29414;44.798;20.366;2023-03-23T06:07:03;126.00;;;33.17;;
43793;SDS011;29414;44.798;20.366;2023-03-23T06:11:04;99.37;;;29.83;;
43793;SDS011;29414;44.798;20.366;2023-03-23T06:15:04;62.03;;;26.30;;
43793;SDS011;29414;44.798;20.366;2023-03-23T06:19:06;50.07;;;27.30;;
43793;SDS011;29414;44.798;20.366;2023-03-23T06:23:06;35.17;;;25.77;;
43793;SDS011;29414;44.798;20.366;2023-03-23T06:27:08;48.50;;;29.30;;
43793;SDS011;29414;44.798;20.366;2023-03-23T06:31:09;60.17;;;28.47;;
43793;SDS011;29414;44.798;20.366;2023-03-23T06:35:10;48.60;;;26.40;;
43793;SDS011;29414;44.798;20.366;2023-03-23T06:39:11;37.03;;;25.23;;
43793;SDS011;29414;44.798;20.366;2023-03-23T06:43:12;42.80;;;27.57;;
43793;SDS011;29414;44.798;20.366;2023-03-23T06:47:13;84.23;;;26.43;;
43793;SDS011;29414;44.798;20.366;2023-03-23T06:51:13;101.62;;;29.80;;
43793;SDS011;29414;44.798;20.366;2023-03-23T06:55:14;52.27;;;24.20;;
43793;SDS011;29414;44.798;20.366;2023-03-23T06:59:14;46.90;;;25.17;;
43793;SDS011;29414;44.798;20.366;2023-03-23T07:03:15;82.33;;;29.23;;
43793;SDS011;29414;44.798;20.366;2023-03-23T07:07:15;42.57;;;23.53;;
43793;SDS011;29414;44.798;20.366;2023-03-23T07:11:18;38.03;;;22.70;;
43793;SDS011;29414;44.798;20.366;2023-03-23T07:15:18;36.67;;;25.30;;
43793;SDS011;29414;44.798;20.366;2023-03-23T07:19:19;48.50;;;28.10;;
43793;SDS011;29414;44.798;20.366;2023-03-23T07:23:19;76.63;;;27.58;;
43793;SDS011;29414;44.798;20.366;2023-03-23T07:27:20;61.47;;;25.07;;
43793;SDS011;29414;44.798;20.366;2023-03-23T07:31:20;87.43;;;25.58;;
43793;SDS011;29414;44.798;20.366;2023-03-23T07:35:20;49.48;;;23.06;;
43793;SDS011;29414;44.798;20.366;2023-03-23T07:39:21;44.24;;;24.94;;
43793;SDS011;29414;44.798;20.366;2023-03-23T07:43:23;64.13;;;27.30;;
43793;SDS011;29414;44.798;20.366;2023-03-23T07:47:23;49.72;;;24.52;;
43793;SDS011;29414;44.798;20.366;2023-03-23T07:51:24;38.44;;;20.92;;
43793;SDS011;29414;44.798;20.366;2023-03-23T07:55:24;53.13;;;20.40;;
43793;SDS011;29414;44.798;20.366;2023-03-23T07:59:25;35.75;;;18.35;;
43793;SDS011;29414;44.798;20.366;2023-03-23T08:03:26;16.65;;;13.48;;
43793;SDS011;29414;44.798;20.366;2023-03-23T08:07:26;19.36;;;12.66;;
43793;SDS011;29414;44.798;20.366;2023-03-23T08:11:26;23.70;;;14.24;;
43793;SDS011;29414;44.798;20.366;2023-03-23T08:15:26;32.45;;;14.30;;
43793;SDS011;29414;44.798;20.366;2023-03-23T08:19:27;76.00;;;23.63;;
43793;SDS011;29414;44.798;20.366;2023-03-23T08:23:27;112.63;;;23.20;;
43793;SDS011;29414;44.798;20.366;2023-03-23T08:27:27;25.38;;;18.17;;
43793;SDS011;29414;44.798;20.366;2023-03-23T08:31:28;69.57;;;20.48;;
43793;SDS011;29414;44.798;20.366;2023-03-23T08:35:28;18.60;;;15.66;;
43793;SDS011;29414;44.798;20.366;2023-03-23T08:39:31;189.32;;;28.13;;
43793;SDS011;29414;44.798;20.366;2023-03-23T08:43:32;158.20;;;27.10;;
43793;SDS011;29414;44.798;20.366;2023-03-23T08:47:33;49.50;;;16.00;;
43793;SDS011;29414;44.798;20.366;2023-03-23T08:51:33;76.80;;;17.48;;
43793;SDS011;29414;44.798;20.366;2023-03-23T08:55:33;146.70;;;26.95;;
43793;SDS011;29414;44.798;20.366;2023-03-23T08:59:34;106.30;;;20.15;;
43793;SDS011;29414;44.798;20.366;2023-03-23T09:03:35;57.00;;;15.30;;
43793;SDS011;29414;44.798;20.366;2023-03-23T09:07:35;38.40;;;13.07;;
43793;SDS011;29414;44.798;20.366;2023-03-23T09:11:36;32.40;;;17.17;;
43793;SDS011;29414;44.798;20.366;2023-03-23T09:15:36;39.50;;;16.95;;
43793;SDS011;29414;44.798;20.366;2023-03-23T09:19:36;93.38;;;19.88;;
43793;SDS011;29414;44.798;20.366;2023-03-23T09:23:36;15.80;;;10.93;;
43793;SDS011;29414;44.798;20.366;2023-03-23T09:27:37;22.15;;;10.60;;
43793;SDS011;29414;44.798;20.366;2023-03-23T09:31:39;21.08;;;10.88;;
43793;SDS011;29414;44.798;20.366;2023-03-23T09:35:41;27.08;;;10.95;;
43793;SDS011;29414;44.798;20.366;2023-03-23T09:39:42;26.85;;;10.23;;
43793;SDS011;29414;44.798;20.366;2023-03-23T09:52:15;20.30;;;8.02;;
43793;SDS011;29414;44.798;20.366;2023-03-23T09:56:16;89.68;;;14.48;;
43793;SDS011;29414;44.798;20.366;2023-03-23T10:00:30;25.23;;;9.00;;
43793;SDS011;29414;44.798;20.366;2023-03-23T10:04:41;45.00;;;11.65;;
43793;SDS011;29414;44.798;20.366;2023-03-23T10:08:45;29.25;;;9.82;;
43793;SDS011;29414;44.798;20.366;2023-03-23T10:12:55;92.00;;;13.57;;
43793;SDS011;29414;44.798;20.366;2023-03-23T10:17:00;59.30;;;11.05;;
43793;SDS011;29414;44.798;20.366;2023-03-23T10:21:03;42.65;;;10.10;;
43793;SDS011;29414;44.798;20.366;2023-03-23T10:25:23;8.98;;;6.07;;
43793;SDS011;29414;44.798;20.366;2023-03-23T10:29:31;45.58;;;8.60;;
43793;SDS011;29414;44.798;20.366;2023-03-23T10:33:42;18.08;;;5.82;;
43793;SDS011;29414;44.798;20.366;2023-03-23T10:37:45;168.70;;;20.40;;
43793;SDS011;29414;44.798;20.366;2023-03-23T10:41:46;62.72;;;9.57;;
43793;SDS011;29414;44.798;20.366;2023-03-23T10:45:51;21.63;;;7.43;;
43793;SDS011;29414;44.798;20.366;2023-03-23T10:49:54;22.13;;;6.72;;
43793;SDS011;29414;44.798;20.366;2023-03-23T10:54:00;31.55;;;7.47;;
43793;SDS011;29414;44.798;20.366;2023-03-23T10:58:04;13.27;;;5.97;;
43793;SDS011;29414;44.798;20.366;2023-03-23T11:02:10;6.78;;;5.53;;
43793;SDS011;29414;44.798;20.366;2023-03-23T11:10:22;21.88;;;7.22;;
43793;SDS011;29414;44.798;20.366;2023-03-23T11:18:36;15.50;;;5.93;;
43793;SDS011;29414;44.798;20.366;2023-03-23T11:22:36;47.53;;;9.07;;
43793;SDS011;29414;44.798;20.366;2023-03-23T11:26:36;17.52;;;7.00;;
43793;SDS011;29414;44.798;20.366;2023-03-23T11:30:40;28.05;;;6.43;;
43793;SDS011;29414;44.798;20.366;2023-03-23T11:34:44;91.28;;;12.95;;
43793;SDS011;29414;44.798;20.366;2023-03-23T11:38:44;83.38;;;10.95;;
43793;SDS011;29414;44.798;20.366;2023-03-23T11:42:46;45.58;;;7.30;;
43793;SDS011;29414;44.798;20.366;2023-03-23T11:54:49;18.63;;;5.95;;
43793;SDS011;29414;44.798;20.366;2023-03-23T11:58:51;541.78;;;60.22;;
43793;SDS011;29414;44.798;20.366;2023-03-23T12:02:55;76.70;;;10.57;;
43793;SDS011;29414;44.798;20.366;2023-03-23T12:19:31;26.63;;;6.80;;
43793;SDS011;29414;44.798;20.366;2023-03-23T12:23:31;36.00;;;6.38;;
43793;SDS011;29414;44.798;20.366;2023-03-23T12:31:46;158.20;;;17.17;;
43793;SDS011;29414;44.798;20.366;2023-03-23T12:47:57;13.05;;;4.47;;
43793;SDS011;29414;44.798;20.366;2023-03-23T12:52:01;31.45;;;6.28;;
43793;SDS011;29414;44.798;20.366;2023-03-23T13:00:28;9.20;;;3.90;;
43793;SDS011;29414;44.798;20.366;2023-03-23T13:04:32;25.40;;;5.20;;
43793;SDS011;29414;44.798;20.366;2023-03-23T13:08:37;5.57;;;4.28;;
43793;SDS011;29414;44.798;20.366;2023-03-23T13:12:39;349.27;;;36.70;;
43793;SDS011;29414;44.798;20.366;2023-03-23T13:16:59;4.15;;;3.58;;
43793;SDS011;29414;44.798;20.366;2023-03-23T13:21:06;10.48;;;4.70;;
43793;SDS011;29414;44.798;20.366;2023-03-23T13:25:31;12.18;;;3.50;;
43793;SDS011;29414;44.798;20.366;2023-03-23T13:29:36;195.98;;;21.42;;
43793;SDS011;29414;44.798;20.366;2023-03-23T13:33:45;33.10;;;6.15;;
43793;SDS011;29414;44.798;20.366;2023-03-23T13:37:50;27.40;;;5.97;;
43793;SDS011;29414;44.798;20.366;2023-03-23T13:41:59;13.88;;;4.53;;
43793;SDS011;29414;44.798;20.366;2023-03-23T13:46:32;83.18;;;10.23;;
43793;SDS011;29414;44.798;20.366;2023-03-23T13:50:27;14.88;;;3.85;;
43793;SDS011;29414;44.798;20.366;2023-03-23T13:54:30;247.30;;;24.30;;
43793;SDS011;29414;44.798;20.366;2023-03-23T13:58:31;83.10;;;11.15;;
43793;SDS011;29414;44.798;20.366;2023-03-23T14:06:35;105.47;;;11.75;;
43793;SDS011;29414;44.798;20.366;2023-03-23T14:10:36;29.98;;;5.50;;
43793;SDS011;29414;44.798;20.366;2023-03-23T14:14:44;24.75;;;5.50;;
43793;SDS011;29414;44.798;20.366;2023-03-23T14:18:52;7.95;;;3.38;;
43793;SDS011;29414;44.798;20.366;2023-03-23T14:22:53;50.83;;;7.13;;
43793;SDS011;29414;44.798;20.366;2023-03-23T14:31:23;71.00;;;9.02;;
43793;SDS011;29414;44.798;20.366;2023-03-23T14:35:28;40.42;;;4.47;;
43793;SDS011;29414;44.798;20.366;2023-03-23T14:39:30;61.05;;;8.23;;
43793;SDS011;29414;44.798;20.366;2023-03-23T14:43:31;3.97;;;3.00;;
43793;SDS011;29414;44.798;20.366;2023-03-23T14:47:35;130.57;;;13.60;;
43793;SDS011;29414;44.798;20.366;2023-03-23T14:51:35;106.70;;;10.35;;
43793;SDS011;29414;44.798;20.366;2023-03-23T14:55:36;68.30;;;8.05;;
43793;SDS011;29414;44.798;20.366;2023-03-23T14:59:36;146.20;;;14.25;;
43793;SDS011;29414;44.798;20.366;2023-03-23T15:03:37;73.20;;;7.32;;
43793;SDS011;29414;44.798;20.366;2023-03-23T15:07:40;146.52;;;15.38;;
43793;SDS011;29414;44.798;20.366;2023-03-23T15:11:41;115.63;;;11.55;;
43793;SDS011;29414;44.798;20.366;2023-03-23T15:15:42;128.57;;;13.20;;
43793;SDS011;29414;44.798;20.366;2023-03-23T15:19:42;208.70;;;22.05;;
43793;SDS011;29414;44.798;20.366;2023-03-23T15:23:43;297.15;;;27.15;;
43793;SDS011;29414;44.798;20.366;2023-03-23T15:27:44;240.65;;;28.88;;
43793;SDS011;29414;44.798;20.366;2023-03-23T15:35:49;54.25;;;7.35;;
43793;SDS011;29414;44.798;20.366;2023-03-23T15:39:50;189.02;;;18.67;;
43793;SDS011;29414;44.798;20.366;2023-03-23T15:43:55;272.75;;;22.70;;
43793;SDS011;29414;44.798;20.366;2023-03-23T15:48:11;577.63;;;62.65;;
43793;SDS011;29414;44.798;20.366;2023-03-23T15:52:13;225.40;;;21.58;;
43793;SDS011;29414;44.798;20.366;2023-03-23T15:56:14;113.40;;;13.65;;
43793;SDS011;29414;44.798;20.366;2023-03-23T16:00:14;182.93;;;21.50;;
43793;SDS011;29414;44.798;20.366;2023-03-23T16:04:16;297.10;;;33.30;;
43793;SDS011;29414;44.798;20.366;2023-03-23T16:08:17;189.93;;;22.27;;
43793;SDS011;29414;44.798;20.366;2023-03-23T16:12:18;440.83;;;51.90;;
43793;SDS011;29414;44.798;20.366;2023-03-23T16:16:22;89.75;;;15.05;;
43793;SDS011;29414;44.798;20.366;2023-03-23T16:20:23;217.23;;;24.65;;
43793;SDS011;29414;44.798;20.366;2023-03-23T16:24:23;31.90;;;7.13;;
43793;SDS011;29414;44.798;20.366;2023-03-23T16:28:23;56.50;;;9.30;;
43793;SDS011;29414;44.798;20.366;2023-03-23T16:32:23;30.10;;;7.82;;
43793;SDS011;29414;44.798;20.366;2023-03-23T16:36:24;67.28;;;9.73;;
43793;SDS011;29414;44.798;20.366;2023-03-23T16:40:24;259.63;;;27.95;;
43793;SDS011;29414;44.798;20.366;2023-03-23T16:44:26;62.15;;;9.55;;
43793;SDS011;29414;44.798;20.366;2023-03-23T16:48:26;89.55;;;13.07;;
43793;SDS011;29414;44.798;20.366;2023-03-23T16:52:26;48.92;;;9.70;;
43793;SDS011;29414;44.798;20.366;2023-03-23T16:56:26;39.13;;;12.70;;
43793;SDS011;29414;44.798;20.366;2023-03-23T17:00:27;64.35;;;14.95;;
43793;SDS011;29414;44.798;20.366;2023-03-23T17:04:28;29.00;;;9.32;;
43793;SDS011;29414;44.798;20.366;2023-03-23T17:08:28;48.65;;;11.77;;
43793;SDS011;29414;44.798;20.366;2023-03-23T17:12:28;92.12;;;15.36;;
43793;SDS011;29414;44.798;20.366;2023-03-23T17:16:28;39.00;;;10.00;;
43793;SDS011;29414;44.798;20.366;2023-03-23T17:20:29;32.80;;;11.73;;
43793;SDS011;29414;44.798;20.366;2023-03-23T17:24:29;43.35;;;12.60;;
43793;SDS011;29414;44.798;20.366;2023-03-23T17:28:29;26.77;;;10.00;;
43793;SDS011;29414;44.798;20.366;2023-03-23T17:32:29;35.00;;;10.32;;
43793;SDS011;29414;44.798;20.366;2023-03-23T17:36:30;32.60;;;10.52;;
43793;SDS011;29414;44.798;20.366;2023-03-23T17:40:30;67.63;;;14.93;;
43793;SDS011;29414;44.798;20.366;2023-03-23T17:44:30;90.18;;;22.40;;
43793;SDS011;29414;44.798;20.366;2023-03-23T17:48:30;64.50;;;18.80;;
43793;SDS011;29414;44.798;20.366;2023-03-23T17:52:31;26.35;;;10.55;;
43793;SDS011;29414;44.798;20.366;2023-03-23T17:56:31;26.65;;;9.88;;
43793;SDS011;29414;44.798;20.366;2023-03-23T18:00:31;17.25;;;8.32;;
43793;SDS011;29414;44.798;20.366;2023-03-23T18:04:32;14.88;;;8.77;;
43793;SDS011;29414;44.798;20.366;2023-03-23T18:08:32;14.93;;;8.75;;
43793;SDS011;29414;44.798;20.366;2023-03-23T18:12:33;18.20;;;9.95;;
43793;SDS011;29414;44.798;20.366;2023-03-23T18:16:33;23.52;;;9.88;;
43793;SDS011;29414;44.798;20.366;2023-03-23T18:20:33;22.58;;;10.43;;
43793;SDS011;29414;44.798;20.366;2023-03-23T18:24:33;20.10;;;9.68;;
43793;SDS011;29414;44.798;20.366;2023-03-23T18:28:34;23.92;;;11.18;;
43793;SDS011;29414;44.798;20.366;2023-03-23T18:32:35;15.43;;;9.85;;
43793;SDS011;29414;44.798;20.366;2023-03-23T18:36:35;13.73;;;10.23;;
43793;SDS011;29414;44.798;20.366;2023-03-23T18:40:40;36.65;;;13.70;;
43793;SDS011;29414;44.798;20.366;2023-03-23T18:44:41;53.67;;;13.00;;
43793;SDS011;29414;44.798;20.366;2023-03-23T18:48:41;25.26;;;11.50;;
43793;SDS011;29414;44.798;20.366;2023-03-23T18:52:41;29.10;;;13.68;;
43793;SDS011;29414;44.798;20.366;2023-03-23T18:56:42;40.33;;;13.18;;
43793;SDS011;29414;44.798;20.366;2023-03-23T19:00:43;34.50;;;15.32;;
43793;SDS011;29414;44.798;20.366;2023-03-23T19:04:44;63.03;;;17.35;;
43793;SDS011;29414;44.798;20.366;2023-03-23T19:08:45;91.90;;;20.25;;
43793;SDS011;29414;44.798;20.366;2023-03-23T19:12:46;25.92;;;11.00;;
43793;SDS011;29414;44.798;20.366;2023-03-23T19:16:46;23.25;;;10.05;;
43793;SDS011;29414;44.798;20.366;2023-03-23T19:20:47;16.83;;;8.73;;
43793;SDS011;29414;44.798;20.366;2023-03-23T19:24:49;27.33;;;13.70;;
43793;SDS011;29414;44.798;20.366;2023-03-23T19:28:49;22.65;;;11.60;;
43793;SDS011;29414;44.798;20.366;2023-03-23T19:32:50;21.08;;;11.32;;
43793;SDS011;29414;44.798;20.366;2023-03-23T19:36:50;24.38;;;11.65;;
43793;SDS011;29414;44.798;20.366;2023-03-23T19:40:52;17.15;;;10.32;;
43793;SDS011;29414;44.798;20.366;2023-03-23T19:44:53;23.27;;;11.02;;
43793;SDS011;29414;44.798;20.366;2023-03-23T19:48:53;28.45;;;12.93;;
43793;SDS011;29414;44.798;20.366;2023-03-23T19:52:53;28.55;;;12.38;;
43793;SDS011;29414;44.798;20.366;2023-03-23T19:56:54;28.48;;;13.85;;
43793;SDS011;29414;44.798;20.366;2023-03-23T20:00:54;26.63;;;13.30;;
43793;SDS011;29414;44.798;20.366;2023-03-23T20:04:55;35.00;;;19.25;;
43793;SDS011;29414;44.798;20.366;2023-03-23T20:08:55;26.90;;;14.45;;
43793;SDS011;29414;44.798;20.366;2023-03-23T20:12:56;24.08;;;13.88;;
43793;SDS011;29414;44.798;20.366;2023-03-23T20:16:56;31.33;;;13.77;;
43793;SDS011;29414;44.798;20.366;2023-03-23T20:21:09;31.05;;;15.48;;
43793;SDS011;29414;44.798;20.366;2023-03-23T20:25:09;29.48;;;14.38;;
43793;SDS011;29414;44.798;20.366;2023-03-23T20:29:10;32.00;;;14.95;;
43793;SDS011;29414;44.798;20.366;2023-03-23T20:33:10;23.23;;;13.27;;
43793;SDS011;29414;44.798;20.366;2023-03-23T20:37:10;24.98;;;16.08;;
43793;SDS011;29414;44.798;20.366;2023-03-23T20:41:14;24.58;;;15.27;;
43793;SDS011;29414;44.798;20.366;2023-03-23T20:45:17;26.52;;;15.30;;
43793;SDS011;29414;44.798;20.366;2023-03-23T20:49:18;21.75;;;14.45;;
43793;SDS011;29414;44.798;20.366;2023-03-23T20:53:20;21.42;;;14.27;;
43793;SDS011;29414;44.798;20.366;2023-03-23T20:57:20;20.40;;;13.15;;
43793;SDS011;29414;44.798;20.366;2023-03-23T21:01:21;20.98;;;13.88;;
43793;SDS011;29414;44.798;20.366;2023-03-23T21:05:21;40.05;;;16.17;;
43793;SDS011;29414;44.798;20.366;2023-03-23T21:09:22;28.75;;;17.73;;
43793;SDS011;29414;44.798;20.366;2023-03-23T21:13:22;28.30;;;18.55;;
43793;SDS011;29414;44.798;20.366;2023-03-23T21:17:22;31.08;;;17.98;;
43793;SDS011;29414;44.798;20.366;2023-03-23T21:21:23;26.08;;;18.17;;
43793;SDS011;29414;44.798;20.366;2023-03-23T21:25:23;50.70;;;21.63;;
43793;SDS011;29414;44.798;20.366;2023-03-23T21:29:23;65.53;;;23.60;;
43793;SDS011;29414;44.798;20.366;2023-03-23T21:33:24;31.55;;;18.60;;
43793;SDS011;29414;44.798;20.366;2023-03-23T21:37:24;36.97;;;19.77;;
43793;SDS011;29414;44.798;20.366;2023-03-23T21:41:25;47.75;;;22.25;;
43793;SDS011;29414;44.798;20.366;2023-03-23T21:45:26;27.58;;;17.45;;
43793;SDS011;29414;44.798;20.366;2023-03-23T21:49:27;26.65;;;18.13;;
43793;SDS011;29414;44.798;20.366;2023-03-23T21:53:29;28.17;;;17.80;;
43793;SDS011;29414;44.798;20.366;2023-03-23T21:57:30;23.52;;;15.48;;
43793;SDS011;29414;44.798;20.366;2023-03-23T22:01:30;52.40;;;25.30;;
43793;SDS011;29414;44.798;20.366;2023-03-23T22:05:31;23.30;;;17.14;;
43793;SDS011;29414;44.798;20.366;2023-03-23T22:09:31;20.70;;;14.82;;
43793;SDS011;29414;44.798;20.366;2023-03-23T22:13:34;18.02;;;13.25;;
43793;SDS011;29414;44.798;20.366;2023-03-23T22:17:35;20.58;;;13.60;;
43793;SDS011;29414;44.798;20.366;2023-03-23T22:21:36;17.63;;;13.60;;
43793;SDS011;29414;44.798;20.366;2023-03-23T22:25:37;15.93;;;11.50;;
43793;SDS011;29414;44.798;20.366;2023-03-23T22:29:37;17.70;;;12.84;;
43793;SDS011;29414;44.798;20.366;2023-03-23T22:33:37;17.08;;;12.35;;
43793;SDS011;29414;44.798;20.366;2023-03-23T22:37:38;14.00;;;10.70;;
43793;SDS011;29414;44.798;20.366;2023-03-23T22:41:39;12.78;;;11.40;;
43793;SDS011;29414;44.798;20.366;2023-03-23T22:45:40;12.45;;;10.13;;
43793;SDS011;29414;44.798;20.366;2023-03-23T22:49:40;19.88;;;12.07;;
43793;SDS011;29414;44.798;20.366;2023-03-23T22:53:40;17.94;;;11.86;;
43793;SDS011;29414;44.798;20.366;2023-03-23T22:57:40;16.88;;;10.52;;
43793;SDS011;29414;44.798;20.366;2023-03-23T23:01:41;31.68;;;17.94;;
43793;SDS011;29414;44.798;20.366;2023-03-23T23:05:42;23.88;;;16.73;;
43793;SDS011;29414;44.798;20.366;2023-03-23T23:09:43;23.13;;;16.88;;
43793;SDS011;29414;44.798;20.366;2023-03-23T23:13:43;17.48;;;15.02;;
43793;SDS011;29414;44.798;20.366;2023-03-23T23:17:44;15.15;;;13.48;;
43793;SDS011;29414;44.798;20.366;2023-03-23T23:21:44;30.86;;;17.96;;
43793;SDS011;29414;44.798;20.366;2023-03-23T23:25:44;20.95;;;17.10;;
43793;SDS011;29414;44.798;20.366;2023-03-23T23:29:45;31.88;;;15.85;;
43793;SDS011;29414;44.798;20.366;2023-03-23T23:33:46;23.50;;;17.88;;
43793;SDS011;29414;44.798;20.366;2023-03-23T23:37:46;23.95;;;16.77;;
43793;SDS011;29414;44.798;20.366;2023-03-23T23:41:46;21.00;;;16.92;;
43793;SDS011;29414;44.798;20.366;2023-03-23T23:45:47;23.17;;;17.20;;
43793;SDS011;29414;44.798;20.366;2023-03-23T23:49:47;23.50;;;15.38;;
43793;SDS011;29414;44.798;20.366;2023-03-23T23:53:47;22.27;;;15.68;;
43793;SDS011;29414;44.798;20.366;2023-03-23T23:57:57;16.85;;;13.15;;
